sensor_id;sensor_type;location;lat;lon;timestamp;P1;durP1;ratioP1;P2;durP2;ratioP2
45073;SDS011;31570;51.688;5.860;2022-11-14T09:32:11;4.43;;;2.58;;
45073;SDS011;31570;51.688;5.860;2022-11-14T09:35:01;3.50;;;2.47;;
45073;SDS011;31570;51.688;5.860;2022-11-14T09:37:46;4.85;;;2.92;;
45073;SDS011;31570;51.688;5.860;2022-11-14T09:40:43;5.13;;;3.13;;
45073;SDS011;31570;51.688;5.860;2022-11-14T09:43:58;4.97;;;2.83;;
45073;SDS011;31570;51.688;5.860;2022-11-14T09:46:53;5.25;;;3.00;;
45073;SDS011;31570;51.688;5.860;2022-11-14T09:49:43;5.28;;;3.10;;
45073;SDS011;31570;51.688;5.860;2022-11-14T09:52:38;7.15;;;3.13;;
45073;SDS011;31570;51.688;5.860;2022-11-14T09:55:30;4.07;;;2.40;;
45073;SDS011;31570;51.688;5.860;2022-11-14T09:58:21;8.45;;;2.90;;
45073;SDS011;31570;51.688;5.860;2022-11-14T10:13:44;3.75;;;2.60;;
45073;SDS011;31570;51.688;5.860;2022-11-14T10:19:22;4.75;;;2.78;;
45073;SDS011;31570;51.688;5.860;2022-11-14T10:29:09;4.80;;;2.80;;
45073;SDS011;31570;51.688;5.860;2022-11-14T10:32:23;3.78;;;2.50;;
45073;SDS011;31570;51.688;5.860;2022-11-14T10:35:12;3.90;;;2.72;;
45073;SDS011;31570;51.688;5.860;2022-11-14T10:41:05;4.00;;;2.55;;
45073;SDS011;31570;51.688;5.860;2022-11-14T10:44:14;5.25;;;3.03;;
45073;SDS011;31570;51.688;5.860;2022-11-14T10:47:06;4.82;;;2.67;;
45073;SDS011;31570;51.688;5.860;2022-11-14T10:49:58;4.18;;;2.88;;
45073;SDS011;31570;51.688;5.860;2022-11-14T10:52:49;4.13;;;2.42;;
45073;SDS011;31570;51.688;5.860;2022-11-14T10:55:39;5.60;;;2.92;;
45073;SDS011;31570;51.688;5.860;2022-11-14T10:58:45;3.22;;;2.55;;
45073;SDS011;31570;51.688;5.860;2022-11-14T11:10:22;3.10;;;2.40;;
45073;SDS011;31570;51.688;5.860;2022-11-14T11:13:33;4.70;;;2.72;;
45073;SDS011;31570;51.688;5.860;2022-11-14T11:16:21;3.65;;;2.40;;
45073;SDS011;31570;51.688;5.860;2022-11-14T11:19:20;3.83;;;2.60;;
45073;SDS011;31570;51.688;5.860;2022-11-14T11:22:34;3.33;;;2.45;;
45073;SDS011;31570;51.688;5.860;2022-11-14T11:25:22;3.20;;;2.53;;
45073;SDS011;31570;51.688;5.860;2022-11-14T11:28:13;4.00;;;2.40;;
45073;SDS011;31570;51.688;5.860;2022-11-14T11:31:03;4.38;;;2.60;;
45073;SDS011;31570;51.688;5.860;2022-11-14T11:33:50;3.75;;;2.53;;
45073;SDS011;31570;51.688;5.860;2022-11-14T11:36:38;4.47;;;2.67;;
45073;SDS011;31570;51.688;5.860;2022-11-14T11:39:29;3.40;;;2.40;;
45073;SDS011;31570;51.688;5.860;2022-11-14T11:42:32;6.00;;;3.00;;
45073;SDS011;31570;51.688;5.860;2022-11-14T11:45:58;2.97;;;2.30;;
45073;SDS011;31570;51.688;5.860;2022-11-14T11:48:48;3.20;;;2.75;;
45073;SDS011;31570;51.688;5.860;2022-11-14T11:51:39;4.63;;;2.35;;
45073;SDS011;31570;51.688;5.860;2022-11-14T11:54:30;3.75;;;2.55;;
45073;SDS011;31570;51.688;5.860;2022-11-14T11:57:24;3.97;;;2.47;;
45073;SDS011;31570;51.688;5.860;2022-11-14T12:00:18;4.47;;;2.28;;
45073;SDS011;31570;51.688;5.860;2022-11-14T12:03:11;3.10;;;2.33;;
45073;SDS011;31570;51.688;5.860;2022-11-14T12:06:22;3.25;;;2.28;;
45073;SDS011;31570;51.688;5.860;2022-11-14T12:09:23;4.60;;;2.83;;
45073;SDS011;31570;51.688;5.860;2022-11-14T12:27:27;5.97;;;2.70;;
45073;SDS011;31570;51.688;5.860;2022-11-14T12:30:22;3.47;;;2.42;;
45073;SDS011;31570;51.688;5.860;2022-11-14T12:33:17;3.10;;;2.20;;
45073;SDS011;31570;51.688;5.860;2022-11-14T12:36:10;4.45;;;2.70;;
45073;SDS011;31570;51.688;5.860;2022-11-14T12:38:56;3.60;;;2.28;;
45073;SDS011;31570;51.688;5.860;2022-11-14T12:41:42;2.83;;;2.35;;
45073;SDS011;31570;51.688;5.860;2022-11-14T12:50:03;4.25;;;2.63;;
45073;SDS011;31570;51.688;5.860;2022-11-14T12:52:50;5.05;;;2.35;;
45073;SDS011;31570;51.688;5.860;2022-11-14T12:58:33;3.35;;;2.38;;
45073;SDS011;31570;51.688;5.860;2022-11-14T13:01:36;3.70;;;2.33;;
45073;SDS011;31570;51.688;5.860;2022-11-14T13:05:04;3.28;;;2.33;;
45073;SDS011;31570;51.688;5.860;2022-11-14T13:08:11;3.35;;;2.58;;
45073;SDS011;31570;51.688;5.860;2022-11-14T13:14:52;3.92;;;2.58;;
45073;SDS011;31570;51.688;5.860;2022-11-14T13:18:02;3.08;;;2.17;;
45073;SDS011;31570;51.688;5.860;2022-11-14T13:27:44;3.13;;;2.47;;
45073;SDS011;31570;51.688;5.860;2022-11-14T13:40:40;4.63;;;2.80;;
45073;SDS011;31570;51.688;5.860;2022-11-14T13:43:52;3.40;;;2.58;;
45073;SDS011;31570;51.688;5.860;2022-11-14T13:50:01;2.95;;;2.08;;
45073;SDS011;31570;51.688;5.860;2022-11-14T13:52:51;3.53;;;2.30;;
45073;SDS011;31570;51.688;5.860;2022-11-14T14:08:19;3.15;;;2.30;;
45073;SDS011;31570;51.688;5.860;2022-11-14T14:14:39;2.72;;;2.25;;
45073;SDS011;31570;51.688;5.860;2022-11-14T14:17:42;3.03;;;2.10;;
45073;SDS011;31570;51.688;5.860;2022-11-14T14:33:51;3.42;;;2.10;;
45073;SDS011;31570;51.688;5.860;2022-11-14T14:36:36;3.28;;;2.47;;
45073;SDS011;31570;51.688;5.860;2022-11-14T14:39:33;3.63;;;2.30;;
45073;SDS011;31570;51.688;5.860;2022-11-14T14:42:18;3.28;;;2.20;;
45073;SDS011;31570;51.688;5.860;2022-11-14T14:45:04;3.30;;;2.50;;
45073;SDS011;31570;51.688;5.860;2022-11-14T14:48:12;3.67;;;2.60;;
45073;SDS011;31570;51.688;5.860;2022-11-14T14:50:58;3.45;;;2.53;;
45073;SDS011;31570;51.688;5.860;2022-11-14T14:53:52;3.20;;;2.30;;
45073;SDS011;31570;51.688;5.860;2022-11-14T14:56:38;3.03;;;2.30;;
45073;SDS011;31570;51.688;5.860;2022-11-14T14:59:26;3.03;;;2.40;;
45073;SDS011;31570;51.688;5.860;2022-11-14T15:02:16;4.22;;;2.70;;
45073;SDS011;31570;51.688;5.860;2022-11-14T15:05:07;5.45;;;2.47;;
45073;SDS011;31570;51.688;5.860;2022-11-14T15:07:56;3.60;;;2.92;;
45073;SDS011;31570;51.688;5.860;2022-11-14T15:10:46;4.85;;;3.00;;
45073;SDS011;31570;51.688;5.860;2022-11-14T15:13:32;5.18;;;3.47;;
45073;SDS011;31570;51.688;5.860;2022-11-14T15:16:20;5.28;;;3.50;;
45073;SDS011;31570;51.688;5.860;2022-11-14T15:19:08;4.82;;;3.70;;
45073;SDS011;31570;51.688;5.860;2022-11-14T15:22:32;4.85;;;3.60;;
45073;SDS011;31570;51.688;5.860;2022-11-14T15:28:00;10.32;;;5.32;;
45073;SDS011;31570;51.688;5.860;2022-11-14T15:31:02;10.27;;;4.93;;
45073;SDS011;31570;51.688;5.860;2022-11-14T15:34:02;7.00;;;5.00;;
45073;SDS011;31570;51.688;5.860;2022-11-14T15:40:18;6.53;;;4.88;;
45073;SDS011;31570;51.688;5.860;2022-11-14T15:49:56;8.32;;;6.35;;
45073;SDS011;31570;51.688;5.860;2022-11-14T15:53:39;10.27;;;5.95;;
45073;SDS011;31570;51.688;5.860;2022-11-14T15:56:32;10.70;;;6.28;;
45073;SDS011;31570;51.688;5.860;2022-11-14T15:59:22;8.00;;;6.07;;
45073;SDS011;31570;51.688;5.860;2022-11-14T16:02:32;7.53;;;6.32;;
45073;SDS011;31570;51.688;5.860;2022-11-14T16:05:21;8.15;;;6.03;;
45073;SDS011;31570;51.688;5.860;2022-11-14T16:08:09;13.73;;;7.03;;
45073;SDS011;31570;51.688;5.860;2022-11-14T16:10:55;10.30;;;6.50;;
45073;SDS011;31570;51.688;5.860;2022-11-14T16:13:40;15.43;;;6.90;;
45073;SDS011;31570;51.688;5.860;2022-11-14T16:16:25;11.57;;;7.50;;
45073;SDS011;31570;51.688;5.860;2022-11-14T16:19:14;13.77;;;6.65;;
45073;SDS011;31570;51.688;5.860;2022-11-14T16:22:00;10.18;;;6.55;;
45073;SDS011;31570;51.688;5.860;2022-11-14T16:24:47;13.35;;;7.57;;
45073;SDS011;31570;51.688;5.860;2022-11-14T16:27:32;14.00;;;6.47;;
45073;SDS011;31570;51.688;5.860;2022-11-14T16:30:18;12.05;;;7.00;;
45073;SDS011;31570;51.688;5.860;2022-11-14T16:33:07;11.45;;;6.90;;
45073;SDS011;31570;51.688;5.860;2022-11-14T16:35:57;16.45;;;7.63;;
45073;SDS011;31570;51.688;5.860;2022-11-14T16:38:43;13.50;;;7.07;;
45073;SDS011;31570;51.688;5.860;2022-11-14T16:41:34;13.30;;;7.03;;
45073;SDS011;31570;51.688;5.860;2022-11-14T16:44:20;11.90;;;6.78;;
45073;SDS011;31570;51.688;5.860;2022-11-14T16:47:16;15.20;;;7.50;;
45073;SDS011;31570;51.688;5.860;2022-11-14T16:50:02;11.18;;;6.63;;
45073;SDS011;31570;51.688;5.860;2022-11-14T16:52:48;13.40;;;6.70;;
45073;SDS011;31570;51.688;5.860;2022-11-14T16:55:36;12.48;;;6.85;;
45073;SDS011;31570;51.688;5.860;2022-11-14T16:58:24;13.82;;;7.60;;
45073;SDS011;31570;51.688;5.860;2022-11-14T17:01:12;12.77;;;7.45;;
45073;SDS011;31570;51.688;5.860;2022-11-14T17:04:05;11.30;;;7.13;;
45073;SDS011;31570;51.688;5.860;2022-11-14T17:06:54;11.38;;;6.82;;
45073;SDS011;31570;51.688;5.860;2022-11-14T17:09:41;13.15;;;6.40;;
45073;SDS011;31570;51.688;5.860;2022-11-14T17:12:29;11.32;;;6.65;;
45073;SDS011;31570;51.688;5.860;2022-11-14T17:15:15;13.90;;;7.15;;
45073;SDS011;31570;51.688;5.860;2022-11-14T17:18:00;9.48;;;6.28;;
45073;SDS011;31570;51.688;5.860;2022-11-14T17:20:45;10.73;;;6.80;;
45073;SDS011;31570;51.688;5.860;2022-11-14T17:23:31;10.85;;;6.30;;
45073;SDS011;31570;51.688;5.860;2022-11-14T17:26:19;9.93;;;6.75;;
45073;SDS011;31570;51.688;5.860;2022-11-14T17:29:04;11.70;;;6.22;;
45073;SDS011;31570;51.688;5.860;2022-11-14T17:31:52;10.40;;;6.78;;
45073;SDS011;31570;51.688;5.860;2022-11-14T17:34:37;9.77;;;6.18;;
45073;SDS011;31570;51.688;5.860;2022-11-14T17:37:22;13.45;;;6.90;;
45073;SDS011;31570;51.688;5.860;2022-11-14T17:40:07;9.73;;;5.72;;
45073;SDS011;31570;51.688;5.860;2022-11-14T17:43:00;10.98;;;6.30;;
45073;SDS011;31570;51.688;5.860;2022-11-14T17:45:52;9.60;;;6.88;;
45073;SDS011;31570;51.688;5.860;2022-11-14T17:48:38;11.63;;;6.65;;
45073;SDS011;31570;51.688;5.860;2022-11-14T17:51:24;9.88;;;6.60;;
45073;SDS011;31570;51.688;5.860;2022-11-14T17:54:11;10.50;;;6.10;;
45073;SDS011;31570;51.688;5.860;2022-11-14T17:56:56;10.55;;;6.55;;
45073;SDS011;31570;51.688;5.860;2022-11-14T17:59:45;9.40;;;6.85;;
45073;SDS011;31570;51.688;5.860;2022-11-14T18:02:30;11.90;;;6.78;;
45073;SDS011;31570;51.688;5.860;2022-11-14T18:05:15;10.20;;;6.75;;
45073;SDS011;31570;51.688;5.860;2022-11-14T18:08:00;7.63;;;6.40;;
45073;SDS011;31570;51.688;5.860;2022-11-14T18:10:46;11.45;;;6.50;;
45073;SDS011;31570;51.688;5.860;2022-11-14T18:13:33;9.20;;;6.65;;
45073;SDS011;31570;51.688;5.860;2022-11-14T18:16:21;10.38;;;6.30;;
45073;SDS011;31570;51.688;5.860;2022-11-14T18:19:08;11.07;;;6.68;;
45073;SDS011;31570;51.688;5.860;2022-11-14T18:21:56;9.43;;;6.50;;
45073;SDS011;31570;51.688;5.860;2022-11-14T18:24:40;8.68;;;6.30;;
45073;SDS011;31570;51.688;5.860;2022-11-14T18:27:30;8.60;;;5.75;;
45073;SDS011;31570;51.688;5.860;2022-11-14T18:30:15;9.25;;;6.28;;
45073;SDS011;31570;51.688;5.860;2022-11-14T18:33:21;9.93;;;6.47;;
45073;SDS011;31570;51.688;5.860;2022-11-14T18:36:09;11.38;;;6.40;;
45073;SDS011;31570;51.688;5.860;2022-11-14T18:38:55;9.65;;;5.57;;
45073;SDS011;31570;51.688;5.860;2022-11-14T18:41:41;9.88;;;6.40;;
45073;SDS011;31570;51.688;5.860;2022-11-14T18:44:26;8.30;;;6.22;;
45073;SDS011;31570;51.688;5.860;2022-11-14T18:47:11;9.88;;;6.22;;
45073;SDS011;31570;51.688;5.860;2022-11-14T18:49:56;11.23;;;7.03;;
45073;SDS011;31570;51.688;5.860;2022-11-14T18:52:46;7.80;;;5.90;;
45073;SDS011;31570;51.688;5.860;2022-11-14T18:55:31;10.45;;;6.43;;
45073;SDS011;31570;51.688;5.860;2022-11-14T18:58:16;9.50;;;6.40;;
45073;SDS011;31570;51.688;5.860;2022-11-14T19:03:57;8.80;;;6.03;;
45073;SDS011;31570;51.688;5.860;2022-11-14T19:06:44;9.95;;;6.60;;
45073;SDS011;31570;51.688;5.860;2022-11-14T19:09:29;9.82;;;6.82;;
45073;SDS011;31570;51.688;5.860;2022-11-14T19:12:15;9.15;;;5.97;;
45073;SDS011;31570;51.688;5.860;2022-11-14T19:15:05;10.15;;;6.13;;
45073;SDS011;31570;51.688;5.860;2022-11-14T19:17:51;9.98;;;5.57;;
45073;SDS011;31570;51.688;5.860;2022-11-14T19:20:36;8.88;;;6.55;;
45073;SDS011;31570;51.688;5.860;2022-11-14T19:23:24;8.73;;;6.05;;
45073;SDS011;31570;51.688;5.860;2022-11-14T19:26:10;7.35;;;5.50;;
45073;SDS011;31570;51.688;5.860;2022-11-14T19:28:56;8.60;;;5.30;;
45073;SDS011;31570;51.688;5.860;2022-11-14T19:31:46;9.45;;;6.05;;
45073;SDS011;31570;51.688;5.860;2022-11-14T19:34:32;8.35;;;5.18;;
45073;SDS011;31570;51.688;5.860;2022-11-14T19:37:17;7.93;;;5.57;;
45073;SDS011;31570;51.688;5.860;2022-11-14T19:40:02;8.52;;;5.60;;
45073;SDS011;31570;51.688;5.860;2022-11-14T19:42:51;8.15;;;5.47;;
45073;SDS011;31570;51.688;5.860;2022-11-14T19:45:37;8.35;;;5.55;;
45073;SDS011;31570;51.688;5.860;2022-11-14T19:48:22;10.85;;;6.20;;
45073;SDS011;31570;51.688;5.860;2022-11-14T19:51:10;9.38;;;6.32;;
45073;SDS011;31570;51.688;5.860;2022-11-14T19:53:58;10.00;;;6.07;;
45073;SDS011;31570;51.688;5.860;2022-11-14T19:56:45;9.68;;;6.28;;
45073;SDS011;31570;51.688;5.860;2022-11-14T19:59:30;8.30;;;6.03;;
45073;SDS011;31570;51.688;5.860;2022-11-14T20:02:14;8.00;;;5.13;;
45073;SDS011;31570;51.688;5.860;2022-11-14T20:04:59;7.15;;;5.53;;
45073;SDS011;31570;51.688;5.860;2022-11-14T20:07:44;7.00;;;5.10;;
45073;SDS011;31570;51.688;5.860;2022-11-14T20:10:30;8.32;;;5.68;;
45073;SDS011;31570;51.688;5.860;2022-11-14T20:13:15;7.90;;;5.95;;
45073;SDS011;31570;51.688;5.860;2022-11-14T20:16:00;9.73;;;5.57;;
45073;SDS011;31570;51.688;5.860;2022-11-14T20:18:52;10.05;;;6.22;;
45073;SDS011;31570;51.688;5.860;2022-11-14T20:21:43;10.38;;;5.65;;
45073;SDS011;31570;51.688;5.860;2022-11-14T20:24:28;10.32;;;5.47;;
45073;SDS011;31570;51.688;5.860;2022-11-14T20:27:13;9.40;;;5.53;;
45073;SDS011;31570;51.688;5.860;2022-11-14T20:29:58;7.75;;;5.53;;
45073;SDS011;31570;51.688;5.860;2022-11-14T20:32:43;7.80;;;4.97;;
45073;SDS011;31570;51.688;5.860;2022-11-14T20:35:28;7.75;;;5.68;;
45073;SDS011;31570;51.688;5.860;2022-11-14T20:38:13;6.55;;;5.18;;
45073;SDS011;31570;51.688;5.860;2022-11-14T20:40:57;9.50;;;5.40;;
45073;SDS011;31570;51.688;5.860;2022-11-14T20:43:44;8.52;;;5.38;;
45073;SDS011;31570;51.688;5.860;2022-11-14T20:46:29;7.15;;;5.32;;
45073;SDS011;31570;51.688;5.860;2022-11-14T20:49:14;6.05;;;4.88;;
45073;SDS011;31570;51.688;5.860;2022-11-14T20:51:59;7.65;;;5.10;;
45073;SDS011;31570;51.688;5.860;2022-11-14T20:54:49;6.25;;;5.20;;
45073;SDS011;31570;51.688;5.860;2022-11-14T20:57:37;7.63;;;5.32;;
45073;SDS011;31570;51.688;5.860;2022-11-14T21:00:22;6.13;;;5.00;;
45073;SDS011;31570;51.688;5.860;2022-11-14T21:03:08;7.20;;;5.20;;
45073;SDS011;31570;51.688;5.860;2022-11-14T21:05:54;6.30;;;4.88;;
45073;SDS011;31570;51.688;5.860;2022-11-14T21:08:39;7.13;;;4.65;;
45073;SDS011;31570;51.688;5.860;2022-11-14T21:11:24;7.53;;;5.00;;
45073;SDS011;31570;51.688;5.860;2022-11-14T21:14:10;7.90;;;5.30;;
45073;SDS011;31570;51.688;5.860;2022-11-14T21:16:55;7.43;;;4.65;;
45073;SDS011;31570;51.688;5.860;2022-11-14T21:19:40;7.45;;;5.20;;
45073;SDS011;31570;51.688;5.860;2022-11-14T21:22:25;7.80;;;5.60;;
45073;SDS011;31570;51.688;5.860;2022-11-14T21:25:10;8.43;;;5.65;;
45073;SDS011;31570;51.688;5.860;2022-11-14T21:27:55;7.68;;;5.60;;
45073;SDS011;31570;51.688;5.860;2022-11-14T21:30:40;5.63;;;4.55;;
45073;SDS011;31570;51.688;5.860;2022-11-14T21:33:26;6.97;;;4.80;;
45073;SDS011;31570;51.688;5.860;2022-11-14T21:36:14;6.90;;;4.75;;
45073;SDS011;31570;51.688;5.860;2022-11-14T21:39:20;7.15;;;4.75;;
45073;SDS011;31570;51.688;5.860;2022-11-14T21:42:05;6.75;;;5.03;;
45073;SDS011;31570;51.688;5.860;2022-11-14T21:44:49;6.50;;;4.68;;
45073;SDS011;31570;51.688;5.860;2022-11-14T21:47:34;7.38;;;5.50;;
45073;SDS011;31570;51.688;5.860;2022-11-14T21:50:24;6.97;;;5.13;;
45073;SDS011;31570;51.688;5.860;2022-11-14T21:53:09;7.97;;;5.28;;
45073;SDS011;31570;51.688;5.860;2022-11-14T21:56:06;8.23;;;5.10;;
45073;SDS011;31570;51.688;5.860;2022-11-14T21:58:56;6.18;;;4.57;;
45073;SDS011;31570;51.688;5.860;2022-11-14T22:01:58;7.10;;;5.05;;
45073;SDS011;31570;51.688;5.860;2022-11-14T22:05:02;7.68;;;5.10;;
45073;SDS011;31570;51.688;5.860;2022-11-14T22:07:47;8.07;;;5.18;;
45073;SDS011;31570;51.688;5.860;2022-11-14T22:10:32;6.25;;;4.85;;
45073;SDS011;31570;51.688;5.860;2022-11-14T22:13:17;5.00;;;3.90;;
45073;SDS011;31570;51.688;5.860;2022-11-14T22:16:04;6.57;;;4.63;;
45073;SDS011;31570;51.688;5.860;2022-11-14T22:18:50;7.10;;;4.40;;
45073;SDS011;31570;51.688;5.860;2022-11-14T22:21:35;6.35;;;4.22;;
45073;SDS011;31570;51.688;5.860;2022-11-14T22:24:21;6.32;;;4.35;;
45073;SDS011;31570;51.688;5.860;2022-11-14T22:27:07;8.05;;;5.43;;
45073;SDS011;31570;51.688;5.860;2022-11-14T22:29:51;7.00;;;4.78;;
45073;SDS011;31570;51.688;5.860;2022-11-14T22:32:38;5.72;;;4.30;;
45073;SDS011;31570;51.688;5.860;2022-11-14T22:35:23;5.78;;;4.72;;
45073;SDS011;31570;51.688;5.860;2022-11-14T22:38:08;5.97;;;4.28;;
45073;SDS011;31570;51.688;5.860;2022-11-14T22:40:54;7.10;;;5.00;;
45073;SDS011;31570;51.688;5.860;2022-11-14T22:43:40;7.93;;;4.55;;
45073;SDS011;31570;51.688;5.860;2022-11-14T22:46:25;5.53;;;4.20;;
45073;SDS011;31570;51.688;5.860;2022-11-14T22:49:11;5.72;;;4.43;;
45073;SDS011;31570;51.688;5.860;2022-11-14T22:52:02;5.10;;;3.70;;
45073;SDS011;31570;51.688;5.860;2022-11-14T22:54:47;5.55;;;4.32;;
45073;SDS011;31570;51.688;5.860;2022-11-14T22:57:32;6.38;;;4.78;;
45073;SDS011;31570;51.688;5.860;2022-11-14T23:00:17;6.22;;;4.43;;
45073;SDS011;31570;51.688;5.860;2022-11-14T23:03:02;5.65;;;4.22;;
45073;SDS011;31570;51.688;5.860;2022-11-14T23:05:50;6.00;;;3.97;;
45073;SDS011;31570;51.688;5.860;2022-11-14T23:08:36;5.97;;;4.32;;
45073;SDS011;31570;51.688;5.860;2022-11-14T23:11:22;6.30;;;3.90;;
45073;SDS011;31570;51.688;5.860;2022-11-14T23:14:10;5.65;;;4.15;;
45073;SDS011;31570;51.688;5.860;2022-11-14T23:16:56;5.78;;;4.07;;
45073;SDS011;31570;51.688;5.860;2022-11-14T23:19:44;5.10;;;3.80;;
45073;SDS011;31570;51.688;5.860;2022-11-14T23:22:29;5.60;;;3.90;;
45073;SDS011;31570;51.688;5.860;2022-11-14T23:25:14;6.68;;;4.30;;
45073;SDS011;31570;51.688;5.860;2022-11-14T23:27:59;7.13;;;3.90;;
45073;SDS011;31570;51.688;5.860;2022-11-14T23:30:44;6.05;;;4.00;;
45073;SDS011;31570;51.688;5.860;2022-11-14T23:33:29;6.25;;;4.13;;
45073;SDS011;31570;51.688;5.860;2022-11-14T23:36:14;5.93;;;4.32;;
45073;SDS011;31570;51.688;5.860;2022-11-14T23:39:00;6.60;;;4.35;;
45073;SDS011;31570;51.688;5.860;2022-11-14T23:41:45;5.15;;;3.78;;
45073;SDS011;31570;51.688;5.860;2022-11-14T23:44:30;6.53;;;4.07;;
45073;SDS011;31570;51.688;5.860;2022-11-14T23:47:14;5.75;;;4.20;;
45073;SDS011;31570;51.688;5.860;2022-11-14T23:50:00;6.22;;;4.00;;
45073;SDS011;31570;51.688;5.860;2022-11-14T23:52:45;6.72;;;4.00;;
45073;SDS011;31570;51.688;5.860;2022-11-14T23:55:30;5.65;;;4.13;;
45073;SDS011;31570;51.688;5.860;2022-11-14T23:58:18;5.15;;;3.97;;
